Time;durP1;ratioP1;P1;durP2;ratioP2;P2;SDS_P1;SDS_P2;PMS_P1;PMS_P2;Temp;Humidity;BMP_temperature;BMP_pressure;BME280_temperature;BME280_humidity;BME280_pressure;Samples;Min_cycle;Max_cycle;Signal;HPM_P1;HPM_P2
2021/03/22 00:00:57;;;;;;;39.13;5.30;;;;;;;;;;4925170;28;20046;-60
2021/03/22 00:03:24;;;;;;;30.02;5.43;;;;;;;;;;4940845;28;20035;-58
2021/03/22 00:05:57;;;;;;;25.55;4.30;;;;;;;;;;4926430;28;20188;-59
2021/03/22 00:08:24;;;;;;;34.40;6.07;;;;;;;;;;4944983;28;20126;-60
2021/03/22 00:10:50;;;;;;;45.75;5.40;;;;;;;;;;4925434;28;20710;-59
2021/03/22 00:13:16;;;;;;;28.83;4.88;;;;;;;;;;4941038;28;20823;-60
2021/03/22 00:15:45;;;;;;;32.78;4.95;;;;;;;;;;4944296;28;20537;-59
2021/03/22 00:18:18;;;;;;;31.05;4.32;;;;;;;;;;4925582;28;20568;-59
2021/03/22 00:20:46;;;;;;;29.15;4.88;;;;;;;;;;4926060;28;20035;-60
2021/03/22 00:23:14;;;;;;;29.08;4.78;;;;;;;;;;4923527;28;20106;-59
2021/03/22 00:25:44;;;;;;;41.53;4.72;;;;;;;;;;4924576;28;20093;-59
2021/03/22 00:28:13;;;;;;;36.28;6.43;;;;;;;;;;4943979;28;20118;-59
2021/03/22 00:30:41;;;;;;;26.63;5.53;;;;;;;;;;4942722;28;20031;-59
2021/03/22 00:33:12;;;;;;;45.65;6.22;;;;;;;;;;4946671;28;20319;-59
2021/03/22 00:35:38;;;;;;;22.48;4.22;;;;;;;;;;4940997;28;20153;-59
2021/03/22 00:38:07;;;;;;;31.52;5.97;;;;;;;;;;4924750;28;20058;-60
2021/03/22 00:40:37;;;;;;;31.58;5.60;;;;;;;;;;4923073;28;20031;-59
2021/03/22 00:43:03;;;;;;;39.10;5.78;;;;;;;;;;4926349;28;20384;-59
2021/03/22 00:45:28;;;;;;;46.17;5.57;;;;;;;;;;4925220;28;20074;-59
2021/03/22 00:47:54;;;;;;;44.05;6.68;;;;;;;;;;4933595;28;20035;-59
2021/03/22 00:50:26;;;;;;;40.88;7.30;;;;;;;;;;4923517;28;20036;-59
2021/03/22 00:52:51;;;;;;;27.10;5.53;;;;;;;;;;4923180;28;20020;-59
2021/03/22 00:55:20;;;;;;;31.55;5.13;;;;;;;;;;4924203;28;20043;-61
2021/03/22 00:57:45;;;;;;;25.27;4.78;;;;;;;;;;4901495;29;20046;-58
2021/03/22 01:00:21;;;;;;;22.08;5.32;;;;;;;;;;4919442;28;20058;-60
2021/03/22 01:02:49;;;;;;;31.90;4.65;;;;;;;;;;4938626;28;20035;-58
2021/03/22 01:05:17;;;;;;;33.47;4.57;;;;;;;;;;4923983;28;20090;-59
2021/03/22 01:07:43;;;;;;;31.30;4.47;;;;;;;;;;4923676;28;20042;-60
2021/03/22 01:10:20;;;;;;;28.60;4.80;;;;;;;;;;4924669;28;20043;-58
2021/03/22 01:12:47;;;;;;;24.48;5.18;;;;;;;;;;4902790;28;20035;-59
2021/03/22 01:15:13;;;;;;;33.33;5.18;;;;;;;;;;4935015;28;20039;-58
2021/03/22 01:17:42;;;;;;;19.58;5.20;;;;;;;;;;4922034;28;20031;-58
2021/03/22 01:20:14;;;;;;;23.77;5.03;;;;;;;;;;4920865;28;20606;-59
2021/03/22 01:22:44;;;;;;;;;;;;;;;;;;4924344;28;20039;-59
2021/03/22 01:25:10;;;;;;;21.58;3.00;;;;;;;;;;4921617;28;19933;-59
2021/03/22 01:27:38;;;;;;;26.58;4.35;;;;;;;;;;4921493;28;20039;-60
2021/03/22 01:30:09;;;;;;;28.42;4.60;;;;;;;;;;4924030;28;20471;-60
2021/03/22 01:32:37;;;;;;;29.38;4.40;;;;;;;;;;4917859;28;20042;-59
2021/03/22 01:35:03;;;;;;;36.85;4.03;;;;;;;;;;4937905;28;20547;-59
2021/03/22 01:37:31;;;;;;;18.25;3.72;;;;;;;;;;4927514;28;20758;-60
2021/03/22 01:39:57;;;;;;;25.35;4.00;;;;;;;;;;4937079;28;20039;-60
2021/03/22 01:42:49;;;;;;;31.52;4.72;;;;;;;;;;4906392;29;21888;-59
2021/03/22 01:45:17;;;;;;;20.98;3.38;;;;;;;;;;4908254;29;20146;-59
2021/03/22 01:47:42;;;;;;;16.67;4.22;;;;;;;;;;4923600;28;20039;-59
2021/03/22 01:50:14;;;;;;;16.67;2.75;;;;;;;;;;4912134;28;20039;-60
2021/03/22 01:52:41;;;;;;;29.65;3.85;;;;;;;;;;4937056;28;20452;-59
2021/03/22 01:55:11;;;;;;;25.75;2.95;;;;;;;;;;4919776;28;20027;-59
2021/03/22 01:57:41;;;;;;;16.45;2.88;;;;;;;;;;4914691;28;20027;-60
2021/03/22 02:00:07;;;;;;;25.17;2.97;;;;;;;;;;4922609;28;20031;-60
2021/03/22 02:02:33;;;;;;;23.30;3.30;;;;;;;;;;4934228;28;20072;-58
2021/03/22 02:04:59;;;;;;;21.90;2.50;;;;;;;;;;4943403;28;20031;-59
2021/03/22 02:07:25;;;;;;;25.80;3.45;;;;;;;;;;4923678;28;20367;-60
2021/03/22 02:09:51;;;;;;;19.73;3.13;;;;;;;;;;4923047;28;20054;-59
2021/03/22 02:12:17;;;;;;;10.23;2.20;;;;;;;;;;4940413;28;20031;-58
2021/03/22 02:14:43;;;;;;;21.88;2.20;;;;;;;;;;4941549;28;20069;-58
2021/03/22 02:17:17;;;;;;;20.30;2.50;;;;;;;;;;4935361;28;20039;-59
2021/03/22 02:19:51;;;;;;;20.55;2.42;;;;;;;;;;4921463;28;20042;-59
2021/03/22 02:22:19;;;;;;;12.00;1.67;;;;;;;;;;4940365;28;20925;-59
2021/03/22 02:25:03;;;;;;;16.10;2.20;;;;;;;;;;4943578;28;20667;-59
2021/03/22 02:27:47;;;;;;;18.85;2.70;;;;;;;;;;4942075;28;20661;-59
2021/03/22 02:30:16;;;;;;;13.35;1.77;;;;;;;;;;4943057;28;20074;-58
2021/03/22 02:33:00;;;;;;;26.45;2.17;;;;;;;;;;4910974;29;20074;-59
2021/03/22 02:35:35;;;;;;;9.35;1.85;;;;;;;;;;4907051;28;20779;-59
2021/03/22 02:38:08;;;;;;;9.75;2.05;;;;;;;;;;4928293;28;20031;-58
2021/03/22 02:40:53;;;;;;;18.85;1.88;;;;;;;;;;4928176;28;20797;-59
2021/03/22 02:43:19;;;;;;;18.08;2.38;;;;;;;;;;4943661;28;20070;-59
2021/03/22 02:45:45;;;;;;;9.00;1.92;;;;;;;;;;4911380;28;20050;-59
2021/03/22 02:48:21;;;;;;;17.33;2.33;;;;;;;;;;4947270;28;20113;-60
2021/03/22 02:50:47;;;;;;;14.13;2.38;;;;;;;;;;4947487;28;20058;-60
2021/03/22 02:53:38;;;;;;;16.60;2.38;;;;;;;;;;4945358;28;20035;-60
2021/03/22 02:56:20;;;;;;;25.48;2.17;;;;;;;;;;4946092;28;20038;-58
2021/03/22 02:59:00;;;;;;;9.98;1.92;;;;;;;;;;4942311;28;20070;-60
2021/03/22 03:01:30;;;;;;;27.38;2.58;;;;;;;;;;4926324;28;20038;-58
2021/03/22 03:04:01;;;;;;;13.38;1.42;;;;;;;;;;4944274;28;20603;-61
2021/03/22 03:06:53;;;;;;;14.93;2.58;;;;;;;;;;4947540;28;20260;-58
2021/03/22 03:09:22;;;;;;;36.63;3.08;;;;;;;;;;4942462;28;20538;-58
2021/03/22 03:11:48;;;;;;;13.18;1.90;;;;;;;;;;4948234;28;20026;-60
2021/03/22 03:14:14;;;;;;;16.38;2.42;;;;;;;;;;4933464;28;20041;-60
2021/03/22 03:16:46;;;;;;;17.63;1.80;;;;;;;;;;4946371;28;20026;-58
2021/03/22 03:19:14;;;;;;;7.28;2.00;;;;;;;;;;4929811;28;20046;-59
2021/03/22 03:21:39;;;;;;;11.35;1.70;;;;;;;;;;4946342;28;20878;-60
2021/03/22 03:24:12;;;;;;;10.90;1.70;;;;;;;;;;4947046;28;20046;-58
2021/03/22 03:26:37;;;;;;;18.63;2.03;;;;;;;;;;4946552;28;21163;-61
2021/03/22 03:29:10;;;;;;;11.32;1.40;;;;;;;;;;4946619;28;20034;-59
2021/03/22 03:31:36;;;;;;;12.32;1.55;;;;;;;;;;4927802;28;20035;-59
2021/03/22 03:34:05;;;;;;;16.67;1.88;;;;;;;;;;4944193;28;20027;-59
2021/03/22 03:36:36;;;;;;;12.88;1.40;;;;;;;;;;4945178;28;20093;-59
2021/03/22 03:39:04;;;;;;;14.38;2.13;;;;;;;;;;4946364;28;20034;-60
2021/03/22 03:41:30;;;;;;;12.55;1.63;;;;;;;;;;4929433;28;20593;-60
2021/03/22 03:43:58;;;;;;;3.70;1.50;;;;;;;;;;4928112;28;20081;-59
2021/03/22 03:46:26;;;;;;;14.13;2.25;;;;;;;;;;4925049;28;20038;-59
2021/03/22 03:48:54;;;;;;;16.75;1.98;;;;;;;;;;4930503;28;20035;-59
2021/03/22 03:51:21;;;;;;;9.30;1.80;;;;;;;;;;4925159;28;20023;-59
2021/03/22 03:53:49;;;;;;;12.48;1.67;;;;;;;;;;4926558;28;20030;-59
2021/03/22 03:56:14;;;;;;;10.80;1.70;;;;;;;;;;4925341;28;20043;-59
2021/03/22 03:58:42;;;;;;;10.98;1.55;;;;;;;;;;4942155;28;20038;-60
2021/03/22 04:01:10;;;;;;;6.70;1.23;;;;;;;;;;4943945;28;20022;-59
2021/03/22 04:03:39;;;;;;;14.88;2.17;;;;;;;;;;4926267;28;20050;-60
2021/03/22 04:06:07;;;;;;;13.38;1.80;;;;;;;;;;4924468;28;20058;-59
2021/03/22 04:08:36;;;;;;;22.20;3.17;;;;;;;;;;4944283;28;20138;-60
2021/03/22 04:11:04;;;;;;;12.70;2.35;;;;;;;;;;4942150;28;20023;-59
2021/03/22 04:13:31;;;;;;;16.52;2.35;;;;;;;;;;4945864;28;20109;-59
2021/03/22 04:16:00;;;;;;;21.40;1.90;;;;;;;;;;4945696;28;20031;-59
2021/03/22 04:18:26;;;;;;;32.13;2.35;;;;;;;;;;4924063;28;20019;-59
2021/03/22 04:20:58;;;;;;;7.13;2.08;;;;;;;;;;4945072;28;20043;-59
2021/03/22 04:23:26;;;;;;;9.23;1.20;;;;;;;;;;4910219;28;20050;-59
2021/03/22 04:25:54;;;;;;;12.13;1.85;;;;;;;;;;4925617;28;20086;-59
2021/03/22 04:28:22;;;;;;;12.52;2.10;;;;;;;;;;4946616;28;20046;-60
2021/03/22 04:30:48;;;;;;;8.25;1.73;;;;;;;;;;4944068;28;20054;-59
2021/03/22 04:33:18;;;;;;;19.77;1.83;;;;;;;;;;4946382;28;20027;-59
2021/03/22 04:35:43;;;;;;;23.63;1.80;;;;;;;;;;4943699;28;21367;-60
2021/03/22 04:38:13;;;;;;;13.98;1.85;;;;;;;;;;4928478;28;20038;-62
2021/03/22 04:40:39;;;;;;;14.02;1.95;;;;;;;;;;4930229;28;20062;-59
2021/03/22 04:43:04;;;;;;;9.40;1.55;;;;;;;;;;4931051;28;20033;-59
2021/03/22 04:45:30;;;;;;;4.47;1.52;;;;;;;;;;4942732;28;20541;-59
2021/03/22 04:47:58;;;;;;;9.98;1.27;;;;;;;;;;4944699;28;20039;-59
2021/03/22 04:50:24;;;;;;;5.70;1.67;;;;;;;;;;4946184;28;20026;-59
2021/03/22 04:52:52;;;;;;;8.43;2.00;;;;;;;;;;4944895;28;21039;-60
2021/03/22 04:55:21;;;;;;;4.18;1.30;;;;;;;;;;4946830;28;20027;-59
2021/03/22 04:57:52;;;;;;;8.70;1.80;;;;;;;;;;4941011;28;20026;-59
2021/03/22 05:00:28;;;;;;;8.38;1.40;;;;;;;;;;4926610;28;20654;-60
2021/03/22 05:02:56;;;;;;;8.27;1.65;;;;;;;;;;4944931;28;20127;-59
2021/03/22 05:05:27;;;;;;;5.78;1.20;;;;;;;;;;4935922;28;20030;-60
2021/03/22 05:07:53;;;;;;;4.63;1.20;;;;;;;;;;4915995;28;20926;-60
2021/03/22 05:10:21;;;;;;;8.63;1.90;;;;;;;;;;4940532;28;20054;-60
2021/03/22 05:12:46;;;;;;;9.23;1.70;;;;;;;;;;4925239;28;20078;-58
2021/03/22 05:15:14;;;;;;;8.27;1.95;;;;;;;;;;4904346;28;20506;-60
2021/03/22 05:17:45;;;;;;;7.13;1.75;;;;;;;;;;4945939;28;20031;-59
2021/03/22 05:20:14;;;;;;;7.15;1.90;;;;;;;;;;4947286;28;20066;-59
2021/03/22 05:22:40;;;;;;;9.73;1.58;;;;;;;;;;4943038;28;20097;-60
2021/03/22 05:25:08;;;;;;;4.53;0.98;;;;;;;;;;4945097;28;20106;-58
2021/03/22 05:27:33;;;;;;;5.05;1.10;;;;;;;;;;4943925;28;20034;-62
2021/03/22 05:30:05;;;;;;;7.65;1.38;;;;;;;;;;4945990;28;20787;-60
2021/03/22 05:32:34;;;;;;;8.90;1.60;;;;;;;;;;4947464;28;20027;-61
2021/03/22 05:35:03;;;;;;;6.18;1.38;;;;;;;;;;4927487;28;20889;-59
2021/03/22 05:37:29;;;;;;;11.48;1.83;;;;;;;;;;4950153;28;20053;-58
2021/03/22 05:39:54;;;;;;;4.63;1.38;;;;;;;;;;4946702;28;20043;-60
2021/03/22 05:42:39;;;;;;;4.55;1.42;;;;;;;;;;4948253;28;20031;-61
2021/03/22 05:45:17;;;;;;;15.50;1.67;;;;;;;;;;4944081;28;20138;-61
2021/03/22 05:47:54;;;;;;;10.90;1.45;;;;;;;;;;4949068;28;20271;-59
2021/03/22 05:50:23;;;;;;;6.93;1.38;;;;;;;;;;4952546;28;20038;-59
2021/03/22 05:52:55;;;;;;;15.45;2.13;;;;;;;;;;4950743;28;20033;-58
2021/03/22 05:55:21;;;;;;;11.77;1.65;;;;;;;;;;4951506;28;20407;-59
2021/03/22 05:57:47;;;;;;;10.82;1.55;;;;;;;;;;4948123;28;20018;-61
2021/03/22 06:00:12;;;;;;;7.38;1.08;;;;;;;;;;4946772;28;20038;-59
2021/03/22 06:02:40;;;;;;;8.32;1.67;;;;;;;;;;4950805;28;20039;-59
2021/03/22 06:05:21;;;;;;;5.90;0.95;;;;;;;;;;4947806;28;20026;-60
2021/03/22 06:07:49;;;;;;;6.15;1.10;;;;;;;;;;4949791;28;20031;-59
2021/03/22 06:10:17;;;;;;;4.65;1.00;;;;;;;;;;4949488;28;20693;-59
2021/03/22 06:12:48;;;;;;;6.35;1.45;;;;;;;;;;4931312;28;20045;-59
2021/03/22 06:15:14;;;;;;;13.77;1.65;;;;;;;;;;4941837;28;20145;-60
2021/03/22 06:17:48;;;;;;;6.80;1.38;;;;;;;;;;4942883;28;20950;-59
2021/03/22 06:20:21;;;;;;;5.03;1.42;;;;;;;;;;4949674;28;20055;-59
2021/03/22 06:22:46;;;;;;;4.30;1.38;;;;;;;;;;4947449;28;20791;-59
2021/03/22 06:25:20;;;;;;;14.27;1.48;;;;;;;;;;4949102;28;20114;-59
2021/03/22 06:27:49;;;;;;;13.05;1.83;;;;;;;;;;4929405;28;20113;-59
2021/03/22 06:30:18;;;;;;;5.70;1.33;;;;;;;;;;4949464;28;20030;-58
2021/03/22 06:32:48;;;;;;;13.25;2.05;;;;;;;;;;4951006;28;20538;-58
2021/03/22 06:35:23;;;;;;;20.90;1.40;;;;;;;;;;4949102;28;20058;-58
2021/03/22 06:37:49;;;;;;;9.90;1.48;;;;;;;;;;4944910;28;20678;-57
2021/03/22 06:40:29;;;;;;;12.05;1.73;;;;;;;;;;4933864;28;20038;-60
2021/03/22 06:43:09;;;;;;;12.20;1.80;;;;;;;;;;4948003;28;20035;-58
2021/03/22 06:46:05;;;;;;;13.85;1.95;;;;;;;;;;4947070;28;20042;-59
2021/03/22 06:48:35;;;;;;;10.05;1.63;;;;;;;;;;4949127;28;20037;-58
2021/03/22 06:51:05;;;;;;;9.07;2.05;;;;;;;;;;4948609;28;20041;-59
2021/03/22 06:53:46;;;;;;;10.88;1.85;;;;;;;;;;4946256;28;20058;-58
2021/03/22 06:56:13;;;;;;;6.05;1.50;;;;;;;;;;4931397;28;20031;-59
2021/03/22 06:58:41;;;;;;;8.07;1.50;;;;;;;;;;4944813;28;20023;-59
2021/03/22 07:01:20;;;;;;;6.15;1.75;;;;;;;;;;4949553;28;20117;-60
2021/03/22 07:03:49;;;;;;;13.20;1.42;;;;;;;;;;4931849;28;20058;-58
2021/03/22 07:06:15;;;;;;;5.07;1.55;;;;;;;;;;4947457;28;20146;-58
2021/03/22 07:08:41;;;;;;;4.53;1.45;;;;;;;;;;4950159;28;20578;-58
2021/03/22 07:11:12;;;;;;;6.65;1.42;;;;;;;;;;4946428;28;20037;-59
2021/03/22 07:13:40;;;;;;;9.27;1.23;;;;;;;;;;4949495;28;20035;-58
2021/03/22 07:16:28;;;;;;;5.07;1.30;;;;;;;;;;4948805;28;20632;-59
2021/03/22 07:19:06;;;;;;;2.38;1.23;;;;;;;;;;4948147;28;20034;-59
2021/03/22 07:21:43;;;;;;;5.00;1.20;;;;;;;;;;4925998;28;20042;-59
2021/03/22 07:24:18;;;;;;;8.27;1.42;;;;;;;;;;4945620;28;20065;-59
2021/03/22 07:27:05;;;;;;;3.40;1.25;;;;;;;;;;4949486;28;20043;-58
2021/03/22 07:29:43;;;;;;;4.38;1.20;;;;;;;;;;4946695;28;20043;-59
2021/03/22 07:32:09;;;;;;;12.18;1.55;;;;;;;;;;4948347;28;20109;-59
2021/03/22 07:34:49;;;;;;;12.85;1.20;;;;;;;;;;4945868;28;20873;-59
2021/03/22 07:37:17;;;;;;;3.17;1.00;;;;;;;;;;4929886;28;22758;-58
2021/03/22 07:40:12;;;;;;;5.18;1.38;;;;;;;;;;4948326;28;20039;-58
2021/03/22 07:42:50;;;;;;;10.50;1.60;;;;;;;;;;4925066;28;20042;-58
2021/03/22 07:45:29;;;;;;;7.15;1.30;;;;;;;;;;4931772;28;20290;-58
2021/03/22 07:48:04;;;;;;;7.32;1.73;;;;;;;;;;4943497;28;20043;-58
2021/03/22 07:50:56;;;;;;;18.90;1.67;;;;;;;;;;4939609;28;20126;-58
2021/03/22 07:53:30;;;;;;;6.55;1.00;;;;;;;;;;4940637;28;20076;-58
2021/03/22 07:56:01;;;;;;;9.13;1.30;;;;;;;;;;4927452;28;20046;-58
2021/03/22 07:58:45;;;;;;;6.75;1.52;;;;;;;;;;4944699;28;20041;-59
2021/03/22 08:01:18;;;;;;;7.97;1.40;;;;;;;;;;4946654;28;20659;-59
2021/03/22 08:04:04;;;;;;;4.65;1.05;;;;;;;;;;4943775;28;20109;-59
2021/03/22 08:06:33;;;;;;;6.65;1.40;;;;;;;;;;4947534;28;20112;-59
2021/03/22 08:09:05;;;;;;;15.65;1.00;;;;;;;;;;4944163;28;20039;-59
2021/03/22 08:11:32;;;;;;;13.82;1.45;;;;;;;;;;4945044;28;20082;-59
2021/03/22 08:14:02;;;;;;;5.78;0.98;;;;;;;;;;4929624;28;20031;-59
2021/03/22 08:16:47;;;;;;;9.88;1.30;;;;;;;;;;4927624;28;20117;-59
2021/03/22 08:19:18;;;;;;;10.90;0.80;;;;;;;;;;4942668;28;20642;-59
2021/03/22 08:21:50;;;;;;;6.75;1.02;;;;;;;;;;4928322;28;20085;-59
2021/03/22 08:24:25;;;;;;;8.88;1.38;;;;;;;;;;4945639;28;20031;-60
2021/03/22 08:27:05;;;;;;;5.38;0.80;;;;;;;;;;4927722;28;21102;-57
2021/03/22 08:29:39;;;;;;;10.00;0.90;;;;;;;;;;4945165;28;20038;-58
2021/03/22 08:32:20;;;;;;;17.33;1.05;;;;;;;;;;4947535;28;20121;-58
2021/03/22 08:35:12;;;;;;;5.40;1.00;;;;;;;;;;4927519;28;20045;-58
2021/03/22 08:37:42;;;;;;;7.40;1.30;;;;;;;;;;4943166;28;21416;-59
2021/03/22 08:40:10;;;;;;;9.77;0.98;;;;;;;;;;4921969;28;20066;-59
2021/03/22 08:42:41;;;;;;;10.65;1.13;;;;;;;;;;4946862;28;20034;-56
2021/03/22 08:45:17;;;;;;;5.25;1.27;;;;;;;;;;4947865;28;20035;-58
2021/03/22 08:47:48;;;;;;;5.45;0.95;;;;;;;;;;4945875;28;20034;-59
2021/03/22 08:50:19;;;;;;;3.83;0.80;;;;;;;;;;4943966;28;20045;-59
2021/03/22 08:52:50;;;;;;;5.40;1.15;;;;;;;;;;4946044;28;20031;-58
2021/03/22 08:55:20;;;;;;;9.23;1.60;;;;;;;;;;4944913;28;20173;-58
2021/03/22 08:57:49;;;;;;;9.68;1.13;;;;;;;;;;4917751;28;20050;-58
2021/03/22 09:00:17;;;;;;;14.38;1.38;;;;;;;;;;4916563;28;20035;-59
2021/03/22 09:02:51;;;;;;;6.68;0.98;;;;;;;;;;4933490;28;20070;-59
2021/03/22 09:05:18;;;;;;;3.78;0.82;;;;;;;;;;4937309;28;20038;-59
2021/03/22 09:07:46;;;;;;;5.95;0.93;;;;;;;;;;4916284;28;20042;-59
2021/03/22 09:10:20;;;;;;;4.05;1.00;;;;;;;;;;4951929;28;20038;-58
2021/03/22 09:12:46;;;;;;;5.57;0.77;;;;;;;;;;4944991;28;20030;-59
2021/03/22 09:15:31;;;;;;;5.85;0.88;;;;;;;;;;4934546;28;20046;-59
2021/03/22 09:17:59;;;;;;;5.13;0.70;;;;;;;;;;4948865;28;20061;-59
2021/03/22 09:20:27;;;;;;;2.55;0.75;;;;;;;;;;4941167;28;20090;-59
2021/03/22 09:23:00;;;;;;;4.47;0.47;;;;;;;;;;4922775;28;20066;-60
2021/03/22 09:25:44;;;;;;;2.72;0.50;;;;;;;;;;4923042;28;20133;-59
2021/03/22 09:28:25;;;;;;;4.53;0.90;;;;;;;;;;4924439;28;20070;-59
2021/03/22 09:30:54;;;;;;;2.83;0.43;;;;;;;;;;4931314;28;20050;-59
2021/03/22 09:33:38;;;;;;;4.35;0.43;;;;;;;;;;4946573;28;20039;-58
2021/03/22 09:36:10;;;;;;;3.85;0.43;;;;;;;;;;4942647;28;20046;-58
2021/03/22 09:38:43;;;;;;;1.83;0.38;;;;;;;;;;4915018;28;20649;-59
2021/03/22 09:41:09;;;;;;;3.25;0.52;;;;;;;;;;4944044;28;20038;-60
2021/03/22 09:43:37;;;;;;;2.72;0.43;;;;;;;;;;4939222;28;20039;-58
2021/03/22 09:46:17;;;;;;;6.28;0.73;;;;;;;;;;4938880;28;20053;-59
2021/03/22 09:48:43;;;;;;;3.03;0.32;;;;;;;;;;4949944;28;21251;-59
2021/03/22 09:51:09;;;;;;;4.82;0.73;;;;;;;;;;4951385;28;20043;-59
2021/03/22 09:53:50;;;;;;;3.83;0.38;;;;;;;;;;4950993;28;20060;-60
2021/03/22 09:56:28;;;;;;;2.78;0.52;;;;;;;;;;4947888;28;20094;-59
2021/03/22 09:59:15;;;;;;;2.40;0.40;;;;;;;;;;4951554;28;20026;-60
2021/03/22 10:01:41;;;;;;;2.85;0.40;;;;;;;;;;4949400;28;20037;-59
2021/03/22 10:04:14;;;;;;;3.45;0.60;;;;;;;;;;4929429;28;20039;-59
2021/03/22 10:06:49;;;;;;;3.83;0.68;;;;;;;;;;4949482;28;20042;-59
2021/03/22 10:09:14;;;;;;;3.70;0.50;;;;;;;;;;4950714;28;20163;-59
2021/03/22 10:11:44;;;;;;;3.65;0.40;;;;;;;;;;4948368;28;21134;-58
2021/03/22 10:14:18;;;;;;;8.68;0.80;;;;;;;;;;4948066;28;20035;-59
2021/03/22 10:16:46;;;;;;;12.45;0.80;;;;;;;;;;4949839;28;20050;-59
2021/03/22 10:19:14;;;;;;;3.58;0.73;;;;;;;;;;4949628;28;20066;-59
2021/03/22 10:22:08;;;;;;;1.08;0.30;;;;;;;;;;4928937;28;20546;-59
2021/03/22 10:24:40;;;;;;;0.95;0.30;;;;;;;;;;4949369;28;20174;-58
2021/03/22 10:27:20;;;;;;;2.20;0.40;;;;;;;;;;4947845;28;20073;-59
2021/03/22 10:29:48;;;;;;;0.77;0.50;;;;;;;;;;4930901;28;20089;-59
2021/03/22 10:32:13;;;;;;;2.30;0.40;;;;;;;;;;4948682;28;20842;-59
2021/03/22 10:34:38;;;;;;;0.32;0.15;;;;;;;;;;4948079;28;20070;-58
2021/03/22 10:37:23;;;;;;;3.25;0.40;;;;;;;;;;4950387;28;20169;-59
2021/03/22 10:39:50;;;;;;;2.10;0.35;;;;;;;;;;4948874;28;20039;-59
2021/03/22 10:42:26;;;;;;;2.67;0.40;;;;;;;;;;4928934;28;20037;-59
2021/03/22 10:44:52;;;;;;;1.65;0.38;;;;;;;;;;4948785;28;22082;-59
2021/03/22 10:47:21;;;;;;;1.00;0.47;;;;;;;;;;4929441;28;20030;-58
2021/03/22 10:49:48;;;;;;;1.20;0.55;;;;;;;;;;4949517;28;20035;-59
2021/03/22 10:52:24;;;;;;;1.02;0.35;;;;;;;;;;4929808;28;20019;-60
2021/03/22 10:54:57;;;;;;;3.33;0.75;;;;;;;;;;4930282;28;20833;-58
2021/03/22 10:57:24;;;;;;;2.53;0.60;;;;;;;;;;4931784;28;20779;-58
2021/03/22 10:59:57;;;;;;;2.50;0.40;;;;;;;;;;4947701;28;20034;-58
2021/03/22 11:02:28;;;;;;;5.00;0.60;;;;;;;;;;4949513;28;20210;-59
2021/03/22 11:04:59;;;;;;;3.85;0.77;;;;;;;;;;4951456;28;20038;-59
2021/03/22 11:07:26;;;;;;;1.95;0.40;;;;;;;;;;4948846;28;20030;-59
2021/03/22 11:09:59;;;;;;;1.88;0.43;;;;;;;;;;4931488;28;20118;-58
2021/03/22 11:12:26;;;;;;;3.30;0.47;;;;;;;;;;4947642;28;20041;-58
2021/03/22 11:14:57;;;;;;;3.47;0.77;;;;;;;;;;4948990;28;20038;-58
2021/03/22 11:17:24;;;;;;;4.00;0.90;;;;;;;;;;4948385;28;20027;-58
2021/03/22 11:19:53;;;;;;;4.63;0.50;;;;;;;;;;4929202;28;20045;-59
2021/03/22 11:22:29;;;;;;;4.50;0.77;;;;;;;;;;4948172;28;20190;-59
2021/03/22 11:24:57;;;;;;;4.63;0.65;;;;;;;;;;4929230;28;20042;-59
2021/03/22 11:27:25;;;;;;;4.05;0.50;;;;;;;;;;4948800;28;20039;-58
2021/03/22 11:30:02;;;;;;;7.32;1.25;;;;;;;;;;4948772;28;20038;-59
2021/03/22 11:32:32;;;;;;;12.73;0.77;;;;;;;;;;4931060;28;20065;-59
2021/03/22 11:34:58;;;;;;;5.15;0.90;;;;;;;;;;4931413;28;20117;-59
2021/03/22 11:37:34;;;;;;;6.07;0.60;;;;;;;;;;4943873;28;20047;-59
2021/03/22 11:40:01;;;;;;;4.20;0.75;;;;;;;;;;4925856;28;20047;-59
2021/03/22 11:42:29;;;;;;;3.35;0.80;;;;;;;;;;4928881;28;20031;-57
2021/03/22 11:44:57;;;;;;;8.05;0.77;;;;;;;;;;4912964;29;21987;-58
2021/03/22 11:47:23;;;;;;;4.97;0.90;;;;;;;;;;4930883;28;20671;-57
2021/03/22 11:49:51;;;;;;;7.32;0.95;;;;;;;;;;4928816;28;20039;-59
2021/03/22 12:02:50;;;;;;;5.57;0.90;;;;;;;;;;5103372;27;20486;-60
2021/03/22 12:05:36;;;;;;;8.43;1.00;;;;;;;;;;5102888;27;20023;-58
2021/03/22 12:08:21;;;;;;;3.15;0.50;;;;;;;;;;5135345;27;20127;-58
2021/03/22 12:10:49;;;;;;;3.33;0.43;;;;;;;;;;5100192;27;20080;-58
2021/03/22 12:13:14;;;;;;;3.28;0.40;;;;;;;;;;5097924;27;20884;-58
2021/03/22 12:15:40;;;;;;;5.05;0.52;;;;;;;;;;5100858;27;20032;-58
2021/03/22 12:18:07;;;;;;;1.48;0.30;;;;;;;;;;5100258;27;20702;-58
2021/03/22 12:20:36;;;;;;;8.93;0.52;;;;;;;;;;5096450;27;20027;-59
2021/03/22 12:23:02;;;;;;;0.28;0.20;;;;;;;;;;5082148;27;20039;-58
2021/03/22 12:25:29;;;;;;;0.90;0.17;;;;;;;;;;5101652;27;20075;-59
2021/03/22 12:27:55;;;;;;;2.10;0.57;;;;;;;;;;5101040;27;20077;-59
2021/03/22 12:30:25;;;;;;;2.88;0.55;;;;;;;;;;5100612;27;20039;-59
2021/03/22 12:32:51;;;;;;;0.93;0.38;;;;;;;;;;5081023;27;20539;-59
2021/03/22 12:35:27;;;;;;;1.80;0.85;;;;;;;;;;5101084;27;20031;-59
2021/03/22 12:37:55;;;;;;;5.75;0.52;;;;;;;;;;5072126;27;20595;-59
2021/03/22 12:40:23;;;;;;;1.25;0.25;;;;;;;;;;5098888;27;20222;-59
2021/03/22 12:42:49;;;;;;;2.50;0.60;;;;;;;;;;5074195;27;20903;-59
2021/03/22 12:45:18;;;;;;;2.53;0.45;;;;;;;;;;5131239;27;20348;-59
2021/03/22 12:47:43;;;;;;;2.10;0.50;;;;;;;;;;5097487;27;20080;-59
2021/03/22 12:50:35;;;;;;;1.67;0.40;;;;;;;;;;5082293;27;20638;-58
2021/03/22 12:53:00;;;;;;;2.10;0.73;;;;;;;;;;5092017;27;20119;-58
2021/03/22 12:55:29;;;;;;;2.58;0.82;;;;;;;;;;5096446;27;20108;-59
2021/03/22 12:58:02;;;;;;;1.45;0.30;;;;;;;;;;5103571;27;20023;-60
2021/03/22 13:00:28;;;;;;;3.55;0.63;;;;;;;;;;5098418;27;20737;-59
2021/03/22 13:02:56;;;;;;;0.75;0.30;;;;;;;;;;5081388;27;20129;-59
2021/03/22 13:05:25;;;;;;;3.70;0.38;;;;;;;;;;5085468;27;20059;-58
2021/03/22 13:07:51;;;;;;;3.58;0.30;;;;;;;;;;5102308;27;20028;-58
2021/03/22 13:10:23;;;;;;;3.13;0.25;;;;;;;;;;5086396;27;20088;-58
2021/03/22 13:12:51;;;;;;;1.52;0.30;;;;;;;;;;5087394;27;20038;-59
2021/03/22 13:15:37;;;;;;;0.57;0.20;;;;;;;;;;5087449;27;20028;-59
2021/03/22 13:18:17;;;;;;;0.40;0.30;;;;;;;;;;5084518;27;20439;-58
2021/03/22 13:20:48;;;;;;;5.85;0.50;;;;;;;;;;5086494;27;20165;-58
2021/03/22 13:23:15;;;;;;;4.43;0.40;;;;;;;;;;5083763;27;20032;-58
2021/03/22 13:25:40;;;;;;;1.27;0.30;;;;;;;;;;5083186;27;20018;-58
2021/03/22 13:28:23;;;;;;;2.03;0.40;;;;;;;;;;5085470;27;20036;-58
2021/03/22 13:30:49;;;;;;;3.53;0.60;;;;;;;;;;5066184;27;20039;-58
2021/03/22 13:33:20;;;;;;;2.25;0.68;;;;;;;;;;5084078;27;20922;-58
2021/03/22 13:35:51;;;;;;;4.53;0.77;;;;;;;;;;5088656;27;20023;-58
2021/03/22 13:38:24;;;;;;;4.28;0.50;;;;;;;;;;5100211;27;20706;-59
2021/03/22 13:40:53;;;;;;;3.88;1.00;;;;;;;;;;5084804;27;20074;-59
2021/03/22 13:43:22;;;;;;;5.93;0.93;;;;;;;;;;5086171;27;20034;-59
2021/03/22 13:45:48;;;;;;;4.63;1.08;;;;;;;;;;5085803;27;20080;-59
2021/03/22 13:48:15;;;;;;;4.20;0.65;;;;;;;;;;5077860;27;20043;-62
2021/03/22 13:50:41;;;;;;;5.03;0.82;;;;;;;;;;5085538;27;20053;-59
2021/03/22 13:53:07;;;;;;;6.25;1.25;;;;;;;;;;5075701;27;20023;-60
2021/03/22 13:55:35;;;;;;;4.90;0.90;;;;;;;;;;5084795;27;20083;-60
2021/03/22 13:58:01;;;;;;;7.50;1.13;;;;;;;;;;5043893;27;20473;-60
2021/03/22 14:00:28;;;;;;;12.85;0.98;;;;;;;;;;5085590;27;20219;-60
2021/03/22 14:02:57;;;;;;;2.17;0.77;;;;;;;;;;5082790;27;20054;-59
2021/03/22 14:05:24;;;;;;;7.38;0.80;;;;;;;;;;5084118;27;20031;-59
2021/03/22 14:07:52;;;;;;;3.85;0.85;;;;;;;;;;5085122;27;20035;-58
2021/03/22 14:10:19;;;;;;;3.70;0.75;;;;;;;;;;5085612;27;20650;-60
2021/03/22 14:12:45;;;;;;;3.85;0.70;;;;;;;;;;5082270;27;20157;-60
2021/03/22 14:15:20;;;;;;;1.42;0.82;;;;;;;;;;5081241;27;20032;-59
2021/03/22 14:17:46;;;;;;;4.10;0.63;;;;;;;;;;5077393;27;20036;-59
2021/03/22 14:20:12;;;;;;;3.30;0.80;;;;;;;;;;5084294;27;20031;-60
2021/03/22 14:22:38;;;;;;;5.68;0.82;;;;;;;;;;5088501;27;20097;-59
2021/03/22 14:25:04;;;;;;;7.25;1.00;;;;;;;;;;5083836;27;20027;-58
2021/03/22 14:27:29;;;;;;;2.10;0.47;;;;;;;;;;5088122;27;20031;-59
2021/03/22 14:29:55;;;;;;;1.10;0.60;;;;;;;;;;5085884;27;20098;-59
2021/03/22 14:32:20;;;;;;;6.90;1.15;;;;;;;;;;5085776;27;20282;-59
2021/03/22 14:34:50;;;;;;;3.28;0.80;;;;;;;;;;5065231;27;20027;-59
2021/03/22 14:37:15;;;;;;;3.95;0.98;;;;;;;;;;5080501;27;20123;-60
2021/03/22 14:39:43;;;;;;;4.63;0.77;;;;;;;;;;5081721;27;20035;-60
2021/03/22 14:42:13;;;;;;;4.07;1.30;;;;;;;;;;5083894;27;20629;-59
2021/03/22 14:44:43;;;;;;;8.80;0.95;;;;;;;;;;5083441;27;21272;-59
2021/03/22 14:47:09;;;;;;;4.80;0.52;;;;;;;;;;5050013;28;20150;-61
2021/03/22 14:49:34;;;;;;;2.65;0.52;;;;;;;;;;5084406;27;20071;-59
2021/03/22 14:52:00;;;;;;;3.72;1.23;;;;;;;;;;5066996;27;20591;-59
2021/03/22 14:54:25;;;;;;;2.95;0.80;;;;;;;;;;5081894;27;20076;-61
2021/03/22 14:56:51;;;;;;;1.90;0.80;;;;;;;;;;5069908;27;20486;-60
2021/03/22 14:59:19;;;;;;;2.33;0.70;;;;;;;;;;5084554;27;20039;-58
2021/03/22 15:01:49;;;;;;;4.78;0.90;;;;;;;;;;5084556;27;20048;-60
2021/03/22 15:04:17;;;;;;;6.32;1.30;;;;;;;;;;5086747;27;20118;-59
2021/03/22 15:06:46;;;;;;;3.72;1.40;;;;;;;;;;5086209;27;20030;-60
2021/03/22 15:09:11;;;;;;;5.05;1.35;;;;;;;;;;5075074;28;21054;-59